sensor_id;sensor_type;location;lat;lon;timestamp;pressure;altitude;pressure_sealevel;temperature;humidity
70370;BME280;57790;51.356;-2.906;2023-12-22T00:01:33;101691.75;;;12.32;100.00
70370;BME280;57790;51.356;-2.906;2023-12-22T00:04:35;101687.00;;;12.26;100.00
70370;BME280;57790;51.356;-2.906;2023-12-22T00:07:36;101684.97;;;12.37;100.00
70370;BME280;57790;51.356;-2.906;2023-12-22T00:10:36;101690.13;;;12.39;100.00
70370;BME280;57790;51.356;-2.906;2023-12-22T00:13:37;101681.31;;;12.38;100.00
70370;BME280;57790;51.356;-2.906;2023-12-22T00:16:38;101694.63;;;12.38;100.00
70370;BME280;57790;51.356;-2.906;2023-12-22T00:19:38;101693.78;;;12.38;100.00
70370;BME280;57790;51.356;-2.906;2023-12-22T00:22:39;101682.41;;;12.45;100.00
70370;BME280;57790;51.356;-2.906;2023-12-22T00:25:39;101676.84;;;12.39;100.00
70370;BME280;57790;51.356;-2.906;2023-12-22T00:28:39;101670.53;;;12.40;100.00
70370;BME280;57790;51.356;-2.906;2023-12-22T00:31:40;101670.22;;;12.43;100.00
70370;BME280;57790;51.356;-2.906;2023-12-22T00:34:40;101671.06;;;12.43;100.00
70370;BME280;57790;51.356;-2.906;2023-12-22T00:37:40;101676.53;;;12.42;100.00
70370;BME280;57790;51.356;-2.906;2023-12-22T00:40:41;101666.88;;;12.41;100.00
70370;BME280;57790;51.356;-2.906;2023-12-22T00:43:41;101669.38;;;12.42;100.00
70370;BME280;57790;51.356;-2.906;2023-12-22T00:46:42;101669.47;;;12.33;100.00
70370;BME280;57790;51.356;-2.906;2023-12-22T00:49:42;101672.88;;;12.43;100.00
70370;BME280;57790;51.356;-2.906;2023-12-22T00:52:43;101660.72;;;12.40;100.00
70370;BME280;57790;51.356;-2.906;2023-12-22T00:55:43;101667.72;;;12.41;100.00
70370;BME280;57790;51.356;-2.906;2023-12-22T00:58:43;101676.63;;;12.50;100.00
70370;BME280;57790;51.356;-2.906;2023-12-22T01:01:44;101672.81;;;12.52;100.00
70370;BME280;57790;51.356;-2.906;2023-12-22T01:04:44;101674.44;;;12.45;100.00
70370;BME280;57790;51.356;-2.906;2023-12-22T01:07:45;101663.91;;;12.44;100.00
70370;BME280;57790;51.356;-2.906;2023-12-22T01:10:45;101666.56;;;12.44;100.00
70370;BME280;57790;51.356;-2.906;2023-12-22T01:13:46;101666.56;;;12.44;100.00
70370;BME280;57790;51.356;-2.906;2023-12-22T01:16:46;101656.81;;;12.44;100.00
70370;BME280;57790;51.356;-2.906;2023-12-22T01:19:46;101650.03;;;12.50;100.00
70370;BME280;57790;51.356;-2.906;2023-12-22T01:22:47;101652.44;;;12.43;100.00
70370;BME280;57790;51.356;-2.906;2023-12-22T01:25:47;101648.94;;;12.43;100.00
70370;BME280;57790;51.356;-2.906;2023-12-22T01:28:47;101657.63;;;12.45;100.00
70370;BME280;57790;51.356;-2.906;2023-12-22T01:31:48;101656.34;;;12.49;100.00
70370;BME280;57790;51.356;-2.906;2023-12-22T01:34:48;101666.56;;;12.44;100.00
70370;BME280;57790;51.356;-2.906;2023-12-22T01:37:48;101667.97;;;12.48;100.00
70370;BME280;57790;51.356;-2.906;2023-12-22T01:40:49;101664.91;;;12.43;100.00
70370;BME280;57790;51.356;-2.906;2023-12-22T01:43:50;101667.88;;;12.40;100.00
70370;BME280;57790;51.356;-2.906;2023-12-22T01:46:50;101664.91;;;12.43;100.00
70370;BME280;57790;51.356;-2.906;2023-12-22T01:49:51;101661.97;;;12.46;100.00
70370;BME280;57790;51.356;-2.906;2023-12-22T01:52:52;101659.00;;;12.49;100.00
70370;BME280;57790;51.356;-2.906;2023-12-22T01:55:54;101659.16;;;12.47;100.00
70370;BME280;57790;51.356;-2.906;2023-12-22T01:58:57;101656.50;;;12.47;100.00
70370;BME280;57790;51.356;-2.906;2023-12-22T02:01:59;101660.34;;;12.35;100.00
70370;BME280;57790;51.356;-2.906;2023-12-22T02:05:00;101664.06;;;12.42;100.00
70370;BME280;57790;51.356;-2.906;2023-12-22T02:08:00;101673.59;;;12.45;100.00
70370;BME280;57790;51.356;-2.906;2023-12-22T02:11:01;101680.13;;;12.50;100.00
70370;BME280;57790;51.356;-2.906;2023-12-22T02:14:01;101676.25;;;12.45;100.00
70370;BME280;57790;51.356;-2.906;2023-12-22T02:17:20;101681.25;;;12.48;100.00
70370;BME280;57790;51.356;-2.906;2023-12-22T02:20:24;101682.94;;;12.49;100.00
70370;BME280;57790;51.356;-2.906;2023-12-22T02:23:25;101689.44;;;12.55;100.00
70370;BME280;57790;51.356;-2.906;2023-12-22T02:26:30;101684.75;;;12.48;100.00
70370;BME280;57790;51.356;-2.906;2023-12-22T02:29:42;101685.28;;;12.52;100.00
70370;BME280;57790;51.356;-2.906;2023-12-22T02:32:54;101680.63;;;12.54;100.00
70370;BME280;57790;51.356;-2.906;2023-12-22T02:35:59;101680.78;;;12.52;100.00
70370;BME280;57790;51.356;-2.906;2023-12-22T02:39:03;101667.81;;;12.49;100.00
70370;BME280;57790;51.356;-2.906;2023-12-22T02:42:05;101679.44;;;12.48;100.00
70370;BME280;57790;51.356;-2.906;2023-12-22T02:45:06;101672.19;;;12.41;100.00
70370;BME280;57790;51.356;-2.906;2023-12-22T02:48:07;101667.66;;;12.51;100.00
70370;BME280;57790;51.356;-2.906;2023-12-22T02:51:07;101677.91;;;12.46;100.00
70370;BME280;57790;51.356;-2.906;2023-12-22T02:54:07;101663.47;;;12.48;100.00
70370;BME280;57790;51.356;-2.906;2023-12-22T02:57:08;101673.28;;;12.48;100.00
70370;BME280;57790;51.356;-2.906;2023-12-22T03:00:09;101670.69;;;12.38;100.00
70370;BME280;57790;51.356;-2.906;2023-12-22T03:03:09;101669.09;;;12.45;100.00
70370;BME280;57790;51.356;-2.906;2023-12-22T03:06:09;101670.09;;;12.44;100.00
70370;BME280;57790;51.356;-2.906;2023-12-22T03:09:10;101662.69;;;12.56;100.00
70370;BME280;57790;51.356;-2.906;2023-12-22T03:12:10;101652.22;;;12.37;100.00
70370;BME280;57790;51.356;-2.906;2023-12-22T03:15:11;101658.59;;;12.44;100.00
70370;BME280;57790;51.356;-2.906;2023-12-22T03:18:11;101641.41;;;12.56;100.00
70370;BME280;57790;51.356;-2.906;2023-12-22T03:21:18;101642.25;;;12.57;100.00
70370;BME280;57790;51.356;-2.906;2023-12-22T03:24:19;101655.03;;;12.53;100.00
70370;BME280;57790;51.356;-2.906;2023-12-22T03:27:21;101644.41;;;12.53;100.00
70370;BME280;57790;51.356;-2.906;2023-12-22T03:30:21;101629.66;;;12.41;100.00
70370;BME280;57790;51.356;-2.906;2023-12-22T03:33:21;101631.41;;;12.50;100.00
70370;BME280;57790;51.356;-2.906;2023-12-22T03:36:22;101630.94;;;12.55;100.00
70370;BME280;57790;51.356;-2.906;2023-12-22T03:39:22;101630.56;;;12.49;100.00
70370;BME280;57790;51.356;-2.906;2023-12-22T03:42:23;101637.31;;;12.44;100.00
70370;BME280;57790;51.356;-2.906;2023-12-22T03:45:23;101640.13;;;12.42;100.00
70370;BME280;57790;51.356;-2.906;2023-12-22T03:48:23;101643.03;;;12.49;100.00
70370;BME280;57790;51.356;-2.906;2023-12-22T03:51:24;101647.06;;;12.53;100.00
70370;BME280;57790;51.356;-2.906;2023-12-22T03:54:24;101652.69;;;12.50;100.00
70370;BME280;57790;51.356;-2.906;2023-12-22T03:57:24;101654.06;;;12.36;100.00
70370;BME280;57790;51.356;-2.906;2023-12-22T04:00:25;101662.13;;;12.44;100.00
70370;BME280;57790;51.356;-2.906;2023-12-22T04:03:25;101658.16;;;12.48;100.00
70370;BME280;57790;51.356;-2.906;2023-12-22T04:06:26;101651.47;;;12.44;100.00
70370;BME280;57790;51.356;-2.906;2023-12-22T04:09:27;101651.22;;;12.38;100.00
70370;BME280;57790;51.356;-2.906;2023-12-22T04:12:27;101648.41;;;12.39;100.00
70370;BME280;57790;51.356;-2.906;2023-12-22T04:15:27;101658.06;;;12.40;100.00
70370;BME280;57790;51.356;-2.906;2023-12-22T04:18:28;101642.94;;;12.41;100.00
70370;BME280;57790;51.356;-2.906;2023-12-22T04:21:28;101635.38;;;12.46;100.00
70370;BME280;57790;51.356;-2.906;2023-12-22T04:24:28;101629.50;;;12.42;100.00
70370;BME280;57790;51.356;-2.906;2023-12-22T04:27:29;101625.47;;;12.38;100.00
70370;BME280;57790;51.356;-2.906;2023-12-22T04:30:29;101637.25;;;12.36;100.00
70370;BME280;57790;51.356;-2.906;2023-12-22T04:33:30;101631.25;;;12.34;100.00
70370;BME280;57790;51.356;-2.906;2023-12-22T04:36:30;101633.81;;;12.43;100.00
70370;BME280;57790;51.356;-2.906;2023-12-22T04:39:30;101644.25;;;12.37;100.00
70370;BME280;57790;51.356;-2.906;2023-12-22T04:42:31;101642.72;;;12.34;100.00
70370;BME280;57790;51.356;-2.906;2023-12-22T04:45:32;101646.59;;;12.40;100.00
70370;BME280;57790;51.356;-2.906;2023-12-22T04:48:32;101642.78;;;12.42;100.00
70370;BME280;57790;51.356;-2.906;2023-12-22T04:51:33;101639.13;;;12.43;100.00
70370;BME280;57790;51.356;-2.906;2023-12-22T04:54:33;101640.97;;;12.43;100.00
70370;BME280;57790;51.356;-2.906;2023-12-22T04:57:34;101641.28;;;12.40;100.00
70370;BME280;57790;51.356;-2.906;2023-12-22T05:00:34;101639.44;;;12.40;100.00
70370;BME280;57790;51.356;-2.906;2023-12-22T05:03:35;101638.63;;;12.40;100.00
70370;BME280;57790;51.356;-2.906;2023-12-22T05:06:35;101633.69;;;12.45;100.00
70370;BME280;57790;51.356;-2.906;2023-12-22T05:09:36;101644.78;;;12.40;100.00
70370;BME280;57790;51.356;-2.906;2023-12-22T05:12:36;101639.13;;;12.43;100.00
70370;BME280;57790;51.356;-2.906;2023-12-22T05:15:36;101635.53;;;12.44;100.00
70370;BME280;57790;51.356;-2.906;2023-12-22T05:18:37;101646.16;;;12.44;100.00
70370;BME280;57790;51.356;-2.906;2023-12-22T05:21:37;101641.97;;;12.42;100.00
70370;BME280;57790;51.356;-2.906;2023-12-22T05:24:38;101643.31;;;12.28;100.00
70370;BME280;57790;51.356;-2.906;2023-12-22T05:27:38;101641.91;;;12.34;100.00
70370;BME280;57790;51.356;-2.906;2023-12-22T05:30:39;101649.25;;;12.40;100.00
70370;BME280;57790;51.356;-2.906;2023-12-22T05:33:39;101636.94;;;12.39;100.00
70370;BME280;57790;51.356;-2.906;2023-12-22T05:36:40;101639.41;;;12.32;100.00
70370;BME280;57790;51.356;-2.906;2023-12-22T05:39:40;101641.28;;;12.40;100.00
70370;BME280;57790;51.356;-2.906;2023-12-22T05:42:41;101643.19;;;12.30;100.00
70370;BME280;57790;51.356;-2.906;2023-12-22T05:45:41;101641.50;;;12.29;100.00
70370;BME280;57790;51.356;-2.906;2023-12-22T05:48:41;101634.34;;;12.29;100.00
70370;BME280;57790;51.356;-2.906;2023-12-22T05:51:42;101641.50;;;12.29;100.00
70370;BME280;57790;51.356;-2.906;2023-12-22T05:54:42;101637.16;;;12.28;100.00
70370;BME280;57790;51.356;-2.906;2023-12-22T05:57:43;101644.31;;;12.27;100.00
70370;BME280;57790;51.356;-2.906;2023-12-22T06:00:43;101651.53;;;12.35;100.00
70370;BME280;57790;51.356;-2.906;2023-12-22T06:03:47;101652.38;;;12.35;100.00
70370;BME280;57790;51.356;-2.906;2023-12-22T06:06:48;101648.06;;;12.34;100.00
70370;BME280;57790;51.356;-2.906;2023-12-22T06:09:48;101647.53;;;12.31;100.00
70370;BME280;57790;51.356;-2.906;2023-12-22T06:12:49;101658.53;;;12.36;100.00
70370;BME280;57790;51.356;-2.906;2023-12-22T06:15:49;101657.16;;;12.32;100.00
70370;BME280;57790;51.356;-2.906;2023-12-22T06:18:50;101665.34;;;12.20;100.00
70370;BME280;57790;51.356;-2.906;2023-12-22T06:21:50;101686.16;;;12.25;100.00
70370;BME280;57790;51.356;-2.906;2023-12-22T06:24:51;101671.34;;;12.23;100.00
70370;BME280;57790;51.356;-2.906;2023-12-22T06:27:52;101662.84;;;12.19;100.00
70370;BME280;57790;51.356;-2.906;2023-12-22T06:30:52;101658.91;;;12.23;100.00
70370;BME280;57790;51.356;-2.906;2023-12-22T06:33:52;101664.22;;;12.23;100.00
70370;BME280;57790;51.356;-2.906;2023-12-22T06:36:53;101657.06;;;12.24;100.00
70370;BME280;57790;51.356;-2.906;2023-12-22T06:39:53;101653.72;;;12.21;100.00
70370;BME280;57790;51.356;-2.906;2023-12-22T06:42:54;101657.97;;;12.14;100.00
70370;BME280;57790;51.356;-2.906;2023-12-22T06:45:54;101660.41;;;12.26;100.00
70370;BME280;57790;51.356;-2.906;2023-12-22T06:48:56;101655.25;;;12.24;100.00
70370;BME280;57790;51.356;-2.906;2023-12-22T06:51:56;101660.09;;;12.11;100.00
70370;BME280;57790;51.356;-2.906;2023-12-22T06:54:57;101649.41;;;12.20;100.00
70370;BME280;57790;51.356;-2.906;2023-12-22T06:57:57;101636.13;;;12.20;100.00
70370;BME280;57790;51.356;-2.906;2023-12-22T07:00:57;101645.75;;;12.21;100.00
70370;BME280;57790;51.356;-2.906;2023-12-22T07:03:58;101659.06;;;12.21;100.00
70370;BME280;57790;51.356;-2.906;2023-12-22T07:07:02;101658.94;;;12.13;100.00
70370;BME280;57790;51.356;-2.906;2023-12-22T07:10:03;101674.06;;;12.13;100.00
70370;BME280;57790;51.356;-2.906;2023-12-22T07:13:03;101675.66;;;12.06;100.00
70370;BME280;57790;51.356;-2.906;2023-12-22T07:16:05;101673.53;;;12.09;100.00
70370;BME280;57790;51.356;-2.906;2023-12-22T07:19:05;101679.16;;;12.06;100.00
70370;BME280;57790;51.356;-2.906;2023-12-22T07:22:06;101699.31;;;11.99;100.00
70370;BME280;57790;51.356;-2.906;2023-12-22T07:25:06;101701.94;;;12.09;100.00
70370;BME280;57790;51.356;-2.906;2023-12-22T07:28:08;101712.50;;;12.01;100.00
70370;BME280;57790;51.356;-2.906;2023-12-22T07:31:08;101690.38;;;12.00;100.00
70370;BME280;57790;51.356;-2.906;2023-12-22T07:34:09;101707.56;;;12.06;100.00
70370;BME280;57790;51.356;-2.906;2023-12-22T07:37:09;101686.19;;;11.98;100.00
70370;BME280;57790;51.356;-2.906;2023-12-22T07:40:10;101691.75;;;12.04;100.00
70370;BME280;57790;51.356;-2.906;2023-12-22T07:43:10;101702.69;;;12.01;100.00
70370;BME280;57790;51.356;-2.906;2023-12-22T07:46:18;101689.09;;;12.04;100.00
70370;BME280;57790;51.356;-2.906;2023-12-22T07:49:19;101693.16;;;11.99;100.00
70370;BME280;57790;51.356;-2.906;2023-12-22T07:52:20;101691.28;;;11.91;100.00
70370;BME280;57790;51.356;-2.906;2023-12-22T07:55:20;101701.91;;;11.91;100.00
70370;BME280;57790;51.356;-2.906;2023-12-22T07:58:21;101698.50;;;11.99;100.00
70370;BME280;57790;51.356;-2.906;2023-12-22T08:01:21;101696.81;;;11.98;100.00
70370;BME280;57790;51.356;-2.906;2023-12-22T08:04:21;101689.41;;;12.01;100.00
70370;BME280;57790;51.356;-2.906;2023-12-22T08:07:22;101699.78;;;11.95;100.00
70370;BME280;57790;51.356;-2.906;2023-12-22T08:10:22;101707.28;;;11.99;100.00
70370;BME280;57790;51.356;-2.906;2023-12-22T08:13:23;101703.41;;;11.94;100.00
70370;BME280;57790;51.356;-2.906;2023-12-22T08:16:23;101718.91;;;11.98;100.00
70370;BME280;57790;51.356;-2.906;2023-12-22T08:19:23;101709.13;;;11.99;100.00
70370;BME280;57790;51.356;-2.906;2023-12-22T08:22:25;101722.72;;;11.96;100.00
70370;BME280;57790;51.356;-2.906;2023-12-22T08:25:26;101724.00;;;11.91;100.00
70370;BME280;57790;51.356;-2.906;2023-12-22T08:28:26;101724.97;;;11.90;100.00
70370;BME280;57790;51.356;-2.906;2023-12-22T08:31:26;101733.13;;;11.79;100.00
70370;BME280;57790;51.356;-2.906;2023-12-22T08:34:27;101723.00;;;11.93;100.00
70370;BME280;57790;51.356;-2.906;2023-12-22T08:37:28;101734.47;;;11.93;100.00
70370;BME280;57790;51.356;-2.906;2023-12-22T08:40:28;101732.66;;;11.94;100.00
70370;BME280;57790;51.356;-2.906;2023-12-22T08:43:29;101731.81;;;11.93;100.00
70370;BME280;57790;51.356;-2.906;2023-12-22T08:46:29;101739.41;;;11.88;100.00
70370;BME280;57790;51.356;-2.906;2023-12-22T08:49:31;101734.63;;;11.91;100.00
70370;BME280;57790;51.356;-2.906;2023-12-22T08:52:31;101730.44;;;11.89;100.00
70370;BME280;57790;51.356;-2.906;2023-12-22T08:55:31;101740.38;;;11.87;100.00
70370;BME280;57790;51.356;-2.906;2023-12-22T08:58:32;101750.03;;;11.88;100.00
70370;BME280;57790;51.356;-2.906;2023-12-22T09:01:32;101753.78;;;11.85;100.00
70370;BME280;57790;51.356;-2.906;2023-12-22T09:04:33;101749.47;;;11.84;100.00
70370;BME280;57790;51.356;-2.906;2023-12-22T09:07:33;101741.06;;;11.89;100.00
70370;BME280;57790;51.356;-2.906;2023-12-22T09:10:33;101759.53;;;11.90;100.00
70370;BME280;57790;51.356;-2.906;2023-12-22T09:13:35;101749.72;;;11.91;100.00
70370;BME280;57790;51.356;-2.906;2023-12-22T09:16:39;101770.00;;;11.92;100.00
70370;BME280;57790;51.356;-2.906;2023-12-22T09:19:39;101766.53;;;11.82;100.00
70370;BME280;57790;51.356;-2.906;2023-12-22T09:22:40;101773.53;;;11.83;100.00
70370;BME280;57790;51.356;-2.906;2023-12-22T09:25:40;101778.16;;;11.81;100.00
70370;BME280;57790;51.356;-2.906;2023-12-22T09:28:41;101776.59;;;11.88;100.00
70370;BME280;57790;51.356;-2.906;2023-12-22T09:31:41;101774.94;;;11.87;100.00
70370;BME280;57790;51.356;-2.906;2023-12-22T09:34:42;101764.84;;;11.90;100.00
70370;BME280;57790;51.356;-2.906;2023-12-22T09:37:42;101766.34;;;11.93;100.00
70370;BME280;57790;51.356;-2.906;2023-12-22T09:40:43;101755.88;;;11.91;100.00
70370;BME280;57790;51.356;-2.906;2023-12-22T09:43:46;101761.72;;;11.95;100.00
70370;BME280;57790;51.356;-2.906;2023-12-22T09:46:49;101764.69;;;11.92;100.00
70370;BME280;57790;51.356;-2.906;2023-12-22T09:49:51;101767.59;;;11.99;100.00
70370;BME280;57790;51.356;-2.906;2023-12-22T09:52:53;101771.06;;;11.99;100.00
70370;BME280;57790;51.356;-2.906;2023-12-22T09:55:54;101773.34;;;11.94;100.00
70370;BME280;57790;51.356;-2.906;2023-12-22T09:58:56;101759.75;;;11.97;100.00
70370;BME280;57790;51.356;-2.906;2023-12-22T10:01:57;101788.84;;;11.99;100.00
70370;BME280;57790;51.356;-2.906;2023-12-22T10:04:58;101770.09;;;12.00;100.00
70370;BME280;57790;51.356;-2.906;2023-12-22T10:08:00;101797.53;;;12.01;100.00
70370;BME280;57790;51.356;-2.906;2023-12-22T10:11:01;101807.03;;;12.03;100.00
70370;BME280;57790;51.356;-2.906;2023-12-22T10:14:02;101809.28;;;11.98;100.00
70370;BME280;57790;51.356;-2.906;2023-12-22T10:17:05;101822.69;;;12.06;100.00
70370;BME280;57790;51.356;-2.906;2023-12-22T10:20:06;101819.56;;;12.11;100.00
70370;BME280;57790;51.356;-2.906;2023-12-22T10:23:06;101830.91;;;12.13;100.00
70370;BME280;57790;51.356;-2.906;2023-12-22T10:26:06;101825.19;;;12.08;100.00
70370;BME280;57790;51.356;-2.906;2023-12-22T10:29:08;101832.72;;;12.12;100.00
70370;BME280;57790;51.356;-2.906;2023-12-22T10:32:08;101832.34;;;12.07;100.00
70370;BME280;57790;51.356;-2.906;2023-12-22T10:35:09;101813.19;;;12.04;100.00
70370;BME280;57790;51.356;-2.906;2023-12-22T10:38:09;101847.28;;;12.08;100.00
70370;BME280;57790;51.356;-2.906;2023-12-22T10:41:10;101856.78;;;12.11;100.00
70370;BME280;57790;51.356;-2.906;2023-12-22T10:44:10;101856.91;;;12.19;100.00
70370;BME280;57790;51.356;-2.906;2023-12-22T10:47:11;101867.84;;;12.16;100.00
70370;BME280;57790;51.356;-2.906;2023-12-22T10:50:12;101853.56;;;12.17;100.00
70370;BME280;57790;51.356;-2.906;2023-12-22T10:53:15;101867.84;;;12.16;100.00
70370;BME280;57790;51.356;-2.906;2023-12-22T10:56:15;101864.34;;;12.15;100.00
70370;BME280;57790;51.356;-2.906;2023-12-22T10:59:19;101874.41;;;12.12;100.00
70370;BME280;57790;51.356;-2.906;2023-12-22T11:02:22;101870.22;;;12.19;100.00
70370;BME280;57790;51.356;-2.906;2023-12-22T11:05:24;101870.44;;;12.26;100.00
70370;BME280;57790;51.356;-2.906;2023-12-22T11:08:28;101872.13;;;12.27;100.00
70370;BME280;57790;51.356;-2.906;2023-12-22T11:11:39;101866.13;;;12.25;100.00
70370;BME280;57790;51.356;-2.906;2023-12-22T11:14:40;101866.81;;;12.27;100.00
70370;BME280;57790;51.356;-2.906;2023-12-22T11:17:42;101875.47;;;12.29;100.00
70370;BME280;57790;51.356;-2.906;2023-12-22T11:20:43;101869.47;;;12.27;100.00
70370;BME280;57790;51.356;-2.906;2023-12-22T11:23:45;101864.00;;;12.28;100.00
70370;BME280;57790;51.356;-2.906;2023-12-22T11:26:49;101877.19;;;12.30;100.00
70370;BME280;57790;51.356;-2.906;2023-12-22T11:29:51;101861.34;;;12.28;100.00
70370;BME280;57790;51.356;-2.906;2023-12-22T11:32:53;101867.66;;;12.27;100.00
70370;BME280;57790;51.356;-2.906;2023-12-22T11:35:55;101855.91;;;12.30;100.00
70370;BME280;57790;51.356;-2.906;2023-12-22T11:38:56;101851.28;;;12.32;100.00
70370;BME280;57790;51.356;-2.906;2023-12-22T11:41:57;101840.78;;;12.30;100.00
70370;BME280;57790;51.356;-2.906;2023-12-22T11:44:58;101848.75;;;12.30;100.00
70370;BME280;57790;51.356;-2.906;2023-12-22T11:48:06;101852.38;;;12.29;100.00
70370;BME280;57790;51.356;-2.906;2023-12-22T11:51:13;101853.63;;;12.35;100.00
70370;BME280;57790;51.356;-2.906;2023-12-22T11:54:49;101856.97;;;12.37;100.00
70370;BME280;57790;51.356;-2.906;2023-12-22T11:57:50;101851.13;;;12.33;100.00
70370;BME280;57790;51.356;-2.906;2023-12-22T12:00:52;101830.69;;;12.34;100.00
70370;BME280;57790;51.356;-2.906;2023-12-22T12:03:55;101833.03;;;12.37;100.00
70370;BME280;57790;51.356;-2.906;2023-12-22T12:06:55;101830.53;;;12.35;100.00
70370;BME280;57790;51.356;-2.906;2023-12-22T12:09:56;101819.75;;;12.37;100.00
70370;BME280;57790;51.356;-2.906;2023-12-22T12:13:09;101826.75;;;12.38;100.00
70370;BME280;57790;51.356;-2.906;2023-12-22T12:16:10;101828.56;;;12.37;100.00
70370;BME280;57790;51.356;-2.906;2023-12-22T12:19:11;101829.25;;;12.39;100.00
70370;BME280;57790;51.356;-2.906;2023-12-22T12:22:11;101807.81;;;12.41;100.00
70370;BME280;57790;51.356;-2.906;2023-12-22T12:25:13;101825.22;;;12.35;100.00
70370;BME280;57790;51.356;-2.906;2023-12-22T12:28:14;101826.06;;;12.36;100.00
70370;BME280;57790;51.356;-2.906;2023-12-22T12:31:18;101830.94;;;12.40;100.00
70370;BME280;57790;51.356;-2.906;2023-12-22T12:34:18;101834.72;;;12.38;100.00
70370;BME280;57790;51.356;-2.906;2023-12-22T12:37:21;101846.88;;;12.40;100.00
70370;BME280;57790;51.356;-2.906;2023-12-22T12:40:23;101858.66;;;12.38;100.00
70370;BME280;57790;51.356;-2.906;2023-12-22T12:43:24;101847.72;;;12.41;100.00
70370;BME280;57790;51.356;-2.906;2023-12-22T12:46:35;101857.53;;;12.40;100.00
70370;BME280;57790;51.356;-2.906;2023-12-22T12:49:36;101849.16;;;12.35;100.00
70370;BME280;57790;51.356;-2.906;2023-12-22T12:52:36;101847.03;;;12.39;100.00
70370;BME280;57790;51.356;-2.906;2023-12-22T12:55:37;101852.19;;;12.40;100.00
70370;BME280;57790;51.356;-2.906;2023-12-22T12:58:37;101877.13;;;12.39;100.00
70370;BME280;57790;51.356;-2.906;2023-12-22T13:01:42;101861.84;;;12.41;100.00
70370;BME280;57790;51.356;-2.906;2023-12-22T13:04:43;101867.31;;;12.40;100.00
70370;BME280;57790;51.356;-2.906;2023-12-22T13:07:44;101866.34;;;12.41;100.00
70370;BME280;57790;51.356;-2.906;2023-12-22T13:10:45;101874.16;;;12.42;100.00
70370;BME280;57790;51.356;-2.906;2023-12-22T13:13:45;101867.03;;;12.43;100.00
70370;BME280;57790;51.356;-2.906;2023-12-22T13:16:46;101881.59;;;12.39;100.00
70370;BME280;57790;51.356;-2.906;2023-12-22T13:19:46;101873.31;;;12.42;100.00
70370;BME280;57790;51.356;-2.906;2023-12-22T13:22:47;101874.88;;;12.44;100.00
70370;BME280;57790;51.356;-2.906;2023-12-22T13:25:48;101876.44;;;12.37;100.00
70370;BME280;57790;51.356;-2.906;2023-12-22T13:28:48;101875.16;;;12.41;100.00
70370;BME280;57790;51.356;-2.906;2023-12-22T13:31:49;101874.72;;;12.46;100.00
70370;BME280;57790;51.356;-2.906;2023-12-22T13:34:50;101869.69;;;12.43;100.00
70370;BME280;57790;51.356;-2.906;2023-12-22T13:37:51;101856.38;;;12.43;100.00
70370;BME280;57790;51.356;-2.906;2023-12-22T13:40:52;101871.34;;;12.44;100.00
70370;BME280;57790;51.356;-2.906;2023-12-22T13:43:52;101866.59;;;12.47;100.00
70370;BME280;57790;51.356;-2.906;2023-12-22T13:46:52;101855.28;;;12.45;100.00
70370;BME280;57790;51.356;-2.906;2023-12-22T13:49:53;101862.69;;;12.42;100.00
70370;BME280;57790;51.356;-2.906;2023-12-22T13:52:54;101859.03;;;12.43;100.00
70370;BME280;57790;51.356;-2.906;2023-12-22T13:58:55;101851.91;;;12.43;100.00
70370;BME280;57790;51.356;-2.906;2023-12-22T14:01:56;101839.31;;;12.45;100.00
70370;BME280;57790;51.356;-2.906;2023-12-22T14:04:56;101833.84;;;12.47;100.00
70370;BME280;57790;51.356;-2.906;2023-12-22T14:07:56;101848.13;;;12.46;100.00
70370;BME280;57790;51.356;-2.906;2023-12-22T14:10:57;101847.16;;;12.47;100.00
70370;BME280;57790;51.356;-2.906;2023-12-22T14:13:57;101841.16;;;12.45;100.00
70370;BME280;57790;51.356;-2.906;2023-12-22T14:16:58;101841.16;;;12.45;100.00
70370;BME280;57790;51.356;-2.906;2023-12-22T14:19:58;101847.41;;;12.44;100.00
70370;BME280;57790;51.356;-2.906;2023-12-22T14:22:58;101835.94;;;12.43;100.00
70370;BME280;57790;51.356;-2.906;2023-12-22T14:25:59;101829.94;;;12.41;100.00
70370;BME280;57790;51.356;-2.906;2023-12-22T14:28:59;101826.13;;;12.44;100.00
70370;BME280;57790;51.356;-2.906;2023-12-22T14:32:00;101818.16;;;12.44;100.00
70370;BME280;57790;51.356;-2.906;2023-12-22T14:35:00;101812.72;;;12.45;100.00
70370;BME280;57790;51.356;-2.906;2023-12-22T14:38:01;101814.66;;;12.43;100.00
70370;BME280;57790;51.356;-2.906;2023-12-22T14:41:01;101814.53;;;12.45;100.00
70370;BME280;57790;51.356;-2.906;2023-12-22T14:44:01;101812.41;;;12.48;100.00
70370;BME280;57790;51.356;-2.906;2023-12-22T14:47:02;101812.56;;;12.47;100.00
70370;BME280;57790;51.356;-2.906;2023-12-22T14:50:03;101817.06;;;12.46;100.00
70370;BME280;57790;51.356;-2.906;2023-12-22T14:53:04;101825.19;;;12.45;100.00
70370;BME280;57790;51.356;-2.906;2023-12-22T14:56:05;101828.69;;;12.45;100.00
70370;BME280;57790;51.356;-2.906;2023-12-22T14:59:05;101824.03;;;12.47;100.00
70370;BME280;57790;51.356;-2.906;2023-12-22T15:02:06;101822.53;;;12.45;100.00
70370;BME280;57790;51.356;-2.906;2023-12-22T15:05:06;101832.44;;;12.43;100.00
70370;BME280;57790;51.356;-2.906;2023-12-22T15:08:06;101830.78;;;12.42;100.00
70370;BME280;57790;51.356;-2.906;2023-12-22T15:11:07;101831.75;;;12.41;100.00
70370;BME280;57790;51.356;-2.906;2023-12-22T15:14:08;101831.38;;;12.36;100.00
70370;BME280;57790;51.356;-2.906;2023-12-22T15:17:10;101832.91;;;12.38;100.00
70370;BME280;57790;51.356;-2.906;2023-12-22T15:20:10;101838.38;;;12.37;100.00
70370;BME280;57790;51.356;-2.906;2023-12-22T15:23:11;101835.03;;;12.35;100.00
70370;BME280;57790;51.356;-2.906;2023-12-22T15:26:21;101839.34;;;12.36;100.00